Time;durP1;ratioP1;P1;durP2;ratioP2;P2;SDS_P1;SDS_P2;PMS_P1;PMS_P2;Temp;Humidity;BMP_temperature;BMP_pressure;BME280_temperature;BME280_humidity;BME280_pressure;Samples;Min_cycle;Max_cycle;Signal;HPM_P1;HPM_P2
2022/04/14 00:00:27;;;;;;;;;;;11.20;99.90;;;;;;5031678;28;19935;-85
2022/04/14 00:02:52;;;;;;;;;;;11.20;99.90;;;;;;5030655;28;19947;-85
2022/04/14 00:05:18;;;;;;;;;;;11.20;99.90;;;;;;5030599;28;20317;-85
2022/04/14 00:07:44;;;;;;;;;;;11.10;99.90;;;;;;5030523;28;19933;-85
2022/04/14 00:10:10;;;;;;;;;;;11.10;99.90;;;;;;5013981;28;19951;-85
2022/04/14 00:12:36;;;;;;;;;;;11.10;99.90;;;;;;5032091;28;20028;-85
2022/04/14 00:15:02;;;;;;;;;;;11.10;99.90;;;;;;5031519;28;19983;-86
2022/04/14 00:17:29;;;;;;;;;;;11.20;99.90;;;;;;5030601;28;19925;-85
2022/04/14 00:19:54;;;;;;;;;;;11.10;99.90;;;;;;5030388;28;19987;-85
2022/04/14 00:22:20;;;;;;;;;;;11.10;99.90;;;;;;5031617;28;19968;-86
2022/04/14 00:24:45;;;;;;;;;;;11.10;99.90;;;;;;5029815;28;20369;-85
2022/04/14 00:27:11;;;;;;;;;;;11.10;99.90;;;;;;5030729;28;19925;-86
2022/04/14 00:29:36;;;;;;;;;;;11.10;99.90;;;;;;5031577;28;19955;-86
2022/04/14 00:32:02;;;;;;;;;;;11.10;99.90;;;;;;5030482;28;19963;-86
2022/04/14 00:34:27;;;;;;;;;;;11.20;99.90;;;;;;5030489;28;20393;-86
2022/04/14 00:36:53;;;;;;;;;;;11.10;99.90;;;;;;5031988;28;19925;-86
2022/04/14 00:39:19;;;;;;;;;;;11.20;99.90;;;;;;5031550;28;20008;-85
2022/04/14 00:41:44;;;;;;;;;;;11.20;99.90;;;;;;5031758;28;20366;-86
2022/04/14 00:44:10;;;;;;;;;;;11.20;99.90;;;;;;5032593;28;19925;-87
2022/04/14 00:46:35;;;;;;;;;;;11.10;99.90;;;;;;5035289;28;20322;-86
2022/04/14 00:49:01;;;;;;;;;;;11.10;99.90;;;;;;5037828;28;20295;-86
2022/04/14 00:51:26;;;;;;;;;;;11.10;99.90;;;;;;5057189;28;19913;-85
2022/04/14 00:53:52;;;;;;;;;;;11.00;99.90;;;;;;5058622;28;19932;-86
2022/04/14 00:56:17;;;;;;;;;;;11.00;99.90;;;;;;5016667;28;19949;-86
2022/04/14 00:58:43;;;;;;;;;;;11.00;99.90;;;;;;5035755;28;20394;-85
2022/04/14 01:01:09;;;;;;;;;;;11.00;99.90;;;;;;5017552;28;19929;-86
2022/04/14 01:03:35;;;;;;;;;;;11.00;99.90;;;;;;5036101;28;19925;-86
2022/04/14 01:06:00;;;;;;;;;;;11.00;99.90;;;;;;5020634;28;20420;-86
2022/04/14 01:08:30;;;;;;;;;;;11.00;99.90;;;;;;5052033;28;19925;-86
2022/04/14 01:10:55;;;;;;;;;;;11.10;99.90;;;;;;5057808;28;19965;-86
2022/04/14 01:13:21;;;;;;;;;;;11.10;99.90;;;;;;5032890;28;19925;-86
2022/04/14 01:15:47;;;;;;;;;;;11.10;99.90;;;;;;5017186;28;19932;-86
2022/04/14 01:18:13;;;;;;;;;;;11.10;99.90;;;;;;5017170;28;19948;-85
2022/04/14 01:20:41;;;;;;;;;;;11.10;99.90;;;;;;5017161;28;20271;-86
2022/04/14 01:23:08;;;;;;;;;;;11.10;99.90;;;;;;5034486;28;19932;-85
2022/04/14 01:25:35;;;;;;;;;;;11.10;99.90;;;;;;5016706;28;20271;-85
2022/04/14 01:28:01;;;;;;;;;;;11.10;99.90;;;;;;5034786;28;20400;-85
2022/04/14 01:30:27;;;;;;;;;;;11.10;99.90;;;;;;5034828;28;19925;-85
2022/04/14 01:32:52;;;;;;;;;;;11.10;99.90;;;;;;5034399;28;20286;-85
2022/04/14 01:35:18;;;;;;;;;;;11.10;99.90;;;;;;5034643;28;19925;-85
2022/04/14 01:37:43;;;;;;;;;;;11.10;99.90;;;;;;5034113;28;19933;-85
2022/04/14 01:40:09;;;;;;;;;;;11.10;99.90;;;;;;5016605;28;19979;-85
2022/04/14 01:42:35;;;;;;;;;;;11.00;99.90;;;;;;5016354;28;19931;-85
2022/04/14 01:45:00;;;;;;;;;;;11.00;99.90;;;;;;5016322;28;20015;-85
2022/04/14 01:47:26;;;;;;;;;;;11.00;99.90;;;;;;5000114;28;19925;-86
2022/04/14 01:49:52;;;;;;;;;;;11.00;99.90;;;;;;5033834;28;19961;-85
2022/04/14 01:52:18;;;;;;;;;;;10.90;99.90;;;;;;5033972;28;20417;-87
2022/04/14 01:54:43;;;;;;;;;;;10.90;99.90;;;;;;5017665;28;19992;-86
2022/04/14 01:57:09;;;;;;;;;;;10.80;99.90;;;;;;5016529;28;19925;-86
2022/04/14 01:59:34;;;;;;;;;;;10.80;99.90;;;;;;5016420;28;19925;-86
2022/04/14 02:02:00;;;;;;;;;;;10.80;99.90;;;;;;5016504;28;20087;-86
2022/04/14 02:04:25;;;;;;;;;;;10.80;99.90;;;;;;5034036;28;19925;-86
2022/04/14 02:06:51;;;;;;;;;;;10.80;99.90;;;;;;5016190;28;19931;-86
2022/04/14 02:09:16;;;;;;;;;;;10.80;99.90;;;;;;5037172;28;19925;-86
2022/04/14 02:11:42;;;;;;;;;;;10.70;99.90;;;;;;5033722;28;20310;-87
2022/04/14 02:14:07;;;;;;;;;;;10.70;99.90;;;;;;5016323;28;19925;-85
2022/04/14 02:16:33;;;;;;;;;;;10.70;99.90;;;;;;5034024;28;19931;-86
2022/04/14 02:18:58;;;;;;;;;;;10.60;99.90;;;;;;5033361;28;19925;-85
2022/04/14 02:21:23;;;;;;;;;;;10.60;99.90;;;;;;5032786;28;19929;-86
2022/04/14 02:23:49;;;;;;;;;;;10.60;99.90;;;;;;5032945;28;19929;-85
2022/04/14 02:26:16;;;;;;;;;;;10.50;99.90;;;;;;5033303;28;19926;-84
2022/04/14 02:28:41;;;;;;;;;;;10.50;99.90;;;;;;5015332;28;20018;-85
2022/04/14 02:31:07;;;;;;;;;;;10.50;99.90;;;;;;5033021;28;20698;-86
2022/04/14 02:33:32;;;;;;;;;;;10.40;99.90;;;;;;5032929;28;20306;-86
2022/04/14 02:35:58;;;;;;;;;;;10.40;99.90;;;;;;5015290;28;19925;-86
2022/04/14 02:38:23;;;;;;;;;;;10.50;99.90;;;;;;5015322;28;19932;-87
2022/04/14 02:40:48;;;;;;;;;;;10.30;99.90;;;;;;5015172;28;19984;-85
2022/04/14 02:43:14;;;;;;;;;;;10.30;99.90;;;;;;5015000;28;20386;-86
2022/04/14 02:45:39;;;;;;;;;;;10.30;99.90;;;;;;5015146;28;19947;-86
2022/04/14 02:48:05;;;;;;;;;;;10.30;99.90;;;;;;5015400;28;19952;-86
2022/04/14 02:50:30;;;;;;;;;;;10.20;99.90;;;;;;5032216;28;19925;-86
2022/04/14 02:52:56;;;;;;;;;;;10.30;99.90;;;;;;5032282;28;19925;-86
2022/04/14 02:55:21;;;;;;;;;;;10.20;99.90;;;;;;5014713;28;20301;-86
2022/04/14 02:57:48;;;;;;;;;;;10.10;99.90;;;;;;5032541;28;20384;-87
2022/04/14 03:00:14;;;;;;;;;;;10.20;99.90;;;;;;5014671;28;20452;-87
2022/04/14 03:02:40;;;;;;;;;;;10.10;99.90;;;;;;5014742;28;19925;-87
2022/04/14 03:05:06;;;;;;;;;;;10.10;99.90;;;;;;5014626;28;19948;-87
2022/04/14 03:07:32;;;;;;;;;;;10.10;99.90;;;;;;5032419;28;20390;-87
2022/04/14 03:09:57;;;;;;;;;;;10.00;99.90;;;;;;5032213;28;19932;-87
2022/04/14 03:12:22;;;;;;;;;;;10.10;99.90;;;;;;5032296;28;19955;-87
2022/04/14 03:14:48;;;;;;;;;;;10.10;99.90;;;;;;5032158;28;19925;-87
2022/04/14 03:17:14;;;;;;;;;;;9.90;99.90;;;;;;5014387;28;20406;-87
2022/04/14 03:19:39;;;;;;;;;;;10.00;99.90;;;;;;5031563;28;19925;-87
2022/04/14 03:22:05;;;;;;;;;;;10.10;99.90;;;;;;5014518;28;19936;-87
2022/04/14 03:24:31;;;;;;;;;;;9.90;99.90;;;;;;5014193;28;20394;-86
2022/04/14 03:26:56;;;;;;;;;;;9.90;99.90;;;;;;5031980;28;19925;-86
2022/04/14 03:29:22;;;;;;;;;;;9.90;99.90;;;;;;5032064;28;19932;-87
2022/04/14 03:31:47;;;;;;;;;;;9.90;99.90;;;;;;5014455;28;19932;-86
2022/04/14 03:34:12;;;;;;;;;;;9.90;99.90;;;;;;4997478;28;20444;-86
2022/04/14 03:36:38;;;;;;;;;;;9.80;99.90;;;;;;5031936;28;19933;-86
2022/04/14 03:39:04;;;;;;;;;;;9.80;99.90;;;;;;5014438;28;19994;-86
2022/04/14 03:41:29;;;;;;;;;;;9.70;99.90;;;;;;5031846;28;19925;-86
2022/04/14 03:43:55;;;;;;;;;;;9.70;99.90;;;;;;5013956;28;19960;-86
2022/04/14 03:46:20;;;;;;;;;;;9.70;99.90;;;;;;5031673;28;19925;-86
2022/04/14 03:48:46;;;;;;;;;;;9.70;99.90;;;;;;5031319;28;19925;-87
2022/04/14 03:51:15;;;;;;;;;;;9.70;99.90;;;;;;5031757;28;20298;-87
2022/04/14 03:53:41;;;;;;;;;;;9.60;99.90;;;;;;5013717;28;19984;-87
2022/04/14 03:56:06;;;;;;;;;;;9.60;99.90;;;;;;5031664;28;19936;-87
2022/04/14 03:58:32;;;;;;;;;;;9.60;99.90;;;;;;5014370;28;19929;-87
2022/04/14 04:00:57;;;;;;;;;;;9.60;99.90;;;;;;5013814;28;19925;-87
2022/04/14 04:03:23;;;;;;;;;;;9.70;99.90;;;;;;5013702;28;19925;-86
2022/04/14 04:05:48;;;;;;;;;;;9.60;99.90;;;;;;5014026;28;19986;-87
2022/04/14 04:08:14;;;;;;;;;;;9.60;99.90;;;;;;5013840;28;19925;-86
2022/04/14 04:10:39;;;;;;;;;;;9.60;99.90;;;;;;5031430;28;19932;-86
2022/04/14 04:13:05;;;;;;;;;;;9.60;99.90;;;;;;5031489;28;19929;-87
2022/04/14 04:15:30;;;;;;;;;;;9.60;99.90;;;;;;4997587;28;19925;-86
2022/04/14 04:17:56;;;;;;;;;;;9.70;99.90;;;;;;5030858;28;20023;-87
2022/04/14 04:20:21;;;;;;;;;;;9.50;99.90;;;;;;5016270;28;19929;-87
2022/04/14 04:22:47;;;;;;;;;;;9.50;99.90;;;;;;5017500;28;20024;-87
2022/04/14 04:25:12;;;;;;;;;;;9.50;99.90;;;;;;5017510;28;20325;-87
2022/04/14 04:27:38;;;;;;;;;;;9.40;99.90;;;;;;5001316;28;19948;-87
2022/04/14 04:30:05;;;;;;;;;;;9.40;99.90;;;;;;5017329;28;19925;-87
2022/04/14 04:32:33;;;;;;;;;;;9.40;99.90;;;;;;5034959;28;19926;-87
2022/04/14 04:35:02;;;;;;;;;;;11.20;99.90;;;;;;5017409;28;20390;-87
2022/04/14 04:37:28;;;;;;;;;;;9.30;99.90;;;;;;5035342;28;19950;-86
2022/04/14 04:39:53;;;;;;;;;;;9.30;99.90;;;;;;5017095;28;20378;-86
2022/04/14 04:42:19;;;;;;;;;;;9.30;99.90;;;;;;5000888;28;20023;-86
2022/04/14 04:44:44;;;;;;;;;;;9.30;99.90;;;;;;5034356;28;19934;-86
2022/04/14 04:47:10;;;;;;;;;;;9.30;99.90;;;;;;5017481;28;20282;-85
2022/04/14 04:49:35;;;;;;;;;;;9.30;99.90;;;;;;5017003;28;19990;-86
2022/04/14 04:52:01;;;;;;;;;;;9.20;99.90;;;;;;5005176;28;19925;-86
2022/04/14 04:54:26;;;;;;;;;;;9.20;99.90;;;;;;5033364;28;19925;-84
2022/04/14 04:56:52;;;;;;;;;;;9.20;99.90;;;;;;5034721;28;20336;-85
2022/04/14 04:59:17;;;;;;;;;;;9.20;99.90;;;;;;5032892;28;19947;-85
2022/04/14 05:01:43;;;;;;;;;;;9.30;99.90;;;;;;5033292;28;19925;-86
2022/04/14 05:04:11;;;;;;;;;;;9.30;99.90;;;;;;5033538;28;19924;-85
2022/04/14 05:06:37;;;;;;;;;;;9.30;99.90;;;;;;5016920;28;19925;-86
2022/04/14 05:09:02;;;;;;;;;;;9.30;99.90;;;;;;5034692;28;19925;-85
2022/04/14 05:11:28;;;;;;;;;;;9.30;99.90;;;;;;5034426;28;19948;-84
2022/04/14 05:13:53;;;;;;;;;;;9.30;99.90;;;;;;5032834;28;19925;-86
2022/04/14 05:16:19;;;;;;;;;;;9.40;99.90;;;;;;5033484;28;20011;-86
2022/04/14 05:18:44;;;;;;;;;;;9.40;99.90;;;;;;5032896;28;19936;-85
2022/04/14 05:21:10;;;;;;;;;;;9.40;99.90;;;;;;5034435;28;19980;-86
2022/04/14 05:23:35;;;;;;;;;;;9.40;99.90;;;;;;5032865;28;19978;-86
2022/04/14 05:26:01;;;;;;;;;;;9.40;99.90;;;;;;5034548;28;19932;-85
2022/04/14 05:28:26;;;;;;;;;;;9.40;99.90;;;;;;5032477;28;19925;-86
2022/04/14 05:30:52;;;;;;;;;;;9.40;99.90;;;;;;5032834;28;19925;-86
2022/04/14 05:33:17;;;;;;;;;;;9.40;99.90;;;;;;5032964;28;19931;-86
2022/04/14 05:35:44;;;;;;;;;;;9.40;99.90;;;;;;5034100;28;19991;-86
2022/04/14 05:38:09;;;;;;;;;;;9.40;99.90;;;;;;5016269;28;19925;-85
2022/04/14 05:40:41;;;;;;;;;;;9.40;99.90;;;;;;5032551;28;19932;-86
2022/04/14 05:43:19;;;;;;;;;;;9.40;99.90;;;;;;5032486;28;19936;-86
2022/04/14 05:45:47;;;;;;;;;;;9.50;99.90;;;;;;5032515;28;19936;-86
2022/04/14 05:48:13;;;;;;;;;;;9.50;99.90;;;;;;5034119;28;19972;-85
2022/04/14 05:50:39;;;;;;;;;;;9.60;99.90;;;;;;5032828;28;19983;-85
2022/04/14 05:53:04;;;;;;;;;;;10.00;99.90;;;;;;5032309;28;20374;-86
2022/04/14 05:55:30;;;;;;;;;;;10.30;99.90;;;;;;5001076;28;19971;-86
2022/04/14 05:57:55;;;;;;;;;;;10.60;99.90;;;;;;5032575;28;19925;-85
2022/04/14 06:00:20;;;;;;;;;;;11.10;99.90;;;;;;5032579;28;19925;-85
2022/04/14 06:02:46;;;;;;;;;;;11.50;99.90;;;;;;5032411;28;20449;-85
2022/04/14 06:05:12;;;;;;;;;;;12.10;99.90;;;;;;5032561;28;19930;-85
2022/04/14 06:07:38;;;;;;;;;;;12.50;99.90;;;;;;5033580;28;19925;-85
2022/04/14 06:10:04;;;;;;;;;;;12.90;99.90;;;;;;5032184;28;19925;-85
2022/04/14 06:12:29;;;;;;;;;;;13.50;99.90;;;;;;5033509;28;19925;-85
2022/04/14 06:14:54;;;;;;;;;;;14.00;99.90;;;;;;5032277;28;19932;-85
2022/04/14 06:17:20;;;;;;;;;;;14.60;99.90;;;;;;5033437;28;20011;-85
2022/04/14 06:19:45;;;;;;;;;;;15.10;99.90;;;;;;5033321;28;20251;-85
2022/04/14 06:22:11;;;;;;;;;;;15.40;99.90;;;;;;5031922;28;19952;-85
2022/04/14 06:24:36;;;;;;;;;;;15.90;99.90;;;;;;5031713;28;19929;-85
2022/04/14 06:27:02;;;;;;;;;;;16.00;99.90;;;;;;5031213;28;19936;-85
2022/04/14 06:29:27;;;;;;;;;;;16.20;99.90;;;;;;5032139;28;19965;-84
2022/04/14 06:31:53;;;;;;;;;;;16.40;99.90;;;;;;5033062;28;19925;-85
2022/04/14 06:34:18;;;;;;;;;;;16.50;99.90;;;;;;5032873;28;19925;-85
2022/04/14 06:36:44;;;;;;;;;;;16.80;99.90;;;;;;5032856;28;19929;-85
2022/04/14 06:39:12;;;;;;;;;;;16.80;99.90;;;;;;5031494;28;20015;-85
2022/04/14 06:41:41;;;;;;;;;;;17.00;99.90;;;;;;5030402;28;19929;-85
2022/04/14 06:44:06;;;;;;;;;;;17.20;99.90;;;;;;5031285;28;19926;-85
2022/04/14 06:46:32;;;;;;;;;;;17.40;99.90;;;;;;5032784;28;19971;-85
2022/04/14 06:48:58;;;;;;;;;;;17.60;99.90;;;;;;5031552;28;19931;-85
2022/04/14 06:51:23;;;;;;;;;;;17.60;99.90;;;;;;5032537;28;20363;-85
2022/04/14 06:53:49;;;;;;;;;;;17.60;99.90;;;;;;5014806;28;19925;-85
2022/04/14 06:56:14;;;;;;;;;;;17.70;99.90;;;;;;5032171;28;19940;-86
2022/04/14 06:58:41;;;;;;;;;;;17.70;99.90;;;;;;5032920;28;19932;-85
2022/04/14 07:01:07;;;;;;;;;;;18.00;99.90;;;;;;5032605;28;19979;-85
2022/04/14 07:03:32;;;;;;;;;;;18.10;99.90;;;;;;5014803;28;19929;-85
2022/04/14 07:06:00;;;;;;;;;;;18.10;99.90;;;;;;5032387;28;20083;-86
2022/04/14 07:08:26;;;;;;;;;;;18.00;99.90;;;;;;5014946;28;19948;-85
2022/04/14 07:10:52;;;;;;;;;;;18.10;99.90;;;;;;5031771;28;19925;-85
2022/04/14 07:13:17;;;;;;;;;;;18.30;99.90;;;;;;5014646;28;19968;-86
2022/04/14 07:15:43;;;;;;;;;;;18.40;99.90;;;;;;5014541;28;19979;-86
2022/04/14 07:18:08;;;;;;;;;;;18.30;99.90;;;;;;5032111;28;19932;-85
2022/04/14 07:20:34;;;;;;;;;;;18.30;99.90;;;;;;5014374;28;19999;-85
2022/04/14 07:23:02;;;;;;;;;;;18.00;99.90;;;;;;5014431;28;20276;-85
2022/04/14 07:25:29;;;;;;;;;;;17.50;99.90;;;;;;5014286;28;19931;-85
2022/04/14 07:27:54;;;;;;;;;;;17.10;99.90;;;;;;5032077;28;19929;-85
2022/04/14 07:30:20;;;;;;;;;;;16.70;99.90;;;;;;5032139;28;19932;-85
2022/04/14 07:32:46;;;;;;;;;;;16.30;99.90;;;;;;5031902;28;19933;-85
2022/04/14 07:35:12;;;;;;;;;;;16.20;99.90;;;;;;5031972;28;20389;-86
2022/04/14 07:37:37;;;;;;;;;;;16.10;99.90;;;;;;5014441;28;19979;-85
2022/04/14 07:40:04;;;;;;;;;;;16.00;99.90;;;;;;5031381;28;19932;-85
2022/04/14 07:42:30;;;;;;;;;;;15.90;99.90;;;;;;5013946;28;19925;-85
2022/04/14 07:44:55;;;;;;;;;;;15.80;99.90;;;;;;5031842;28;20374;-85
2022/04/14 07:47:21;;;;;;;;;;;15.70;99.90;;;;;;5014082;28;19936;-85
2022/04/14 07:49:46;;;;;;;;;;;15.70;99.90;;;;;;5013811;28;19925;-85
2022/04/14 07:52:13;;;;;;;;;;;15.70;99.90;;;;;;5019688;28;19932;-85
2022/04/14 07:54:38;;;;;;;;;;;15.70;99.90;;;;;;5031375;28;19924;-85
2022/04/14 07:57:04;;;;;;;;;;;15.70;99.90;;;;;;5030322;28;19935;-85
2022/04/14 07:59:29;;;;;;;;;;;15.70;99.90;;;;;;5030643;28;19932;-85
2022/04/14 08:01:55;;;;;;;;;;;15.70;99.90;;;;;;5030148;28;19925;-85
2022/04/14 08:04:20;;;;;;;;;;;15.60;99.90;;;;;;5030276;28;19925;-85
2022/04/14 08:06:46;;;;;;;;;;;15.60;99.90;;;;;;5030412;28;19925;-85
2022/04/14 08:09:11;;;;;;;;;;;15.80;99.90;;;;;;5013497;28;19925;-85
2022/04/14 08:11:36;;;;;;;;;;;15.90;99.90;;;;;;5030508;28;19932;-85
2022/04/14 08:14:02;;;;;;;;;;;15.90;99.90;;;;;;5031595;28;20398;-85
2022/04/14 08:16:28;;;;;;;;;;;15.90;99.90;;;;;;5030217;28;19932;-85
2022/04/14 08:18:53;;;;;;;;;;;16.00;99.90;;;;;;5031349;28;19933;-85
2022/04/14 08:21:19;;;;;;;;;;;16.10;99.90;;;;;;5030138;28;19926;-85
2022/04/14 08:23:44;;;;;;;;;;;16.10;99.90;;;;;;5031095;28;19925;-85
2022/04/14 08:26:11;;;;;;;;;;;16.10;99.90;;;;;;5031471;28;19979;-85
2022/04/14 08:28:40;;;;;;;;;;;16.20;99.90;;;;;;5030329;28;19925;-85
2022/04/14 08:31:06;;;;;;;;;;;16.30;99.90;;;;;;5031328;28;19929;-85
2022/04/14 08:33:32;;;;;;;;;;;16.40;99.90;;;;;;5013506;28;20481;-85
2022/04/14 08:35:59;;;;;;;;;;;16.40;99.90;;;;;;5031193;28;20023;-85
2022/04/14 08:38:25;;;;;;;;;;;16.50;99.90;;;;;;5013383;28;20020;-86
2022/04/14 08:40:56;;;;;;;;;;;16.50;99.90;;;;;;5030057;28;20019;-85
2022/04/14 08:43:26;;;;;;;;;;;16.60;99.90;;;;;;5031372;28;19925;-86
2022/04/14 08:45:52;;;;;;;;;;;16.70;99.90;;;;;;5031060;28;20432;-85
2022/04/14 08:48:20;;;;;;;;;;;16.80;99.90;;;;;;5031150;28;19925;-86
2022/04/14 08:50:48;;;;;;;;;;;16.90;99.90;;;;;;5029789;28;19932;-85
2022/04/14 08:53:14;;;;;;;;;;;16.80;99.90;;;;;;5030495;28;19952;-85
2022/04/14 08:55:40;;;;;;;;;;;17.00;99.90;;;;;;5031418;28;19925;-86
2022/04/14 08:58:11;;;;;;;;;;;17.10;99.90;;;;;;5013228;28;19929;-86
2022/04/14 09:00:37;;;;;;;;;;;17.10;99.90;;;;;;5013519;28;20405;-85
2022/04/14 09:03:03;;;;;;;;;;;17.10;99.90;;;;;;5030923;28;19969;-86
2022/04/14 09:05:28;;;;;;;;;;;17.20;99.90;;;;;;5014666;28;19925;-86
2022/04/14 09:07:54;;;;;;;;;;;17.30;99.90;;;;;;5034281;28;19932;-85
2022/04/14 09:10:19;;;;;;;;;;;17.40;99.90;;;;;;5001264;28;19929;-86
2022/04/14 09:12:47;;;;;;;;;;;17.50;99.90;;;;;;5017793;28;19929;-86
2022/04/14 09:15:12;;;;;;;;;;;17.50;99.90;;;;;;5016743;28;19932;-85
2022/04/14 09:17:37;;;;;;;;;;;17.60;99.90;;;;;;5000173;28;19925;-85
2022/04/14 09:20:22;;;;;;;;;;;17.60;99.90;;;;;;5034634;28;19925;-86
2022/04/14 09:23:07;;;;;;;;;;;17.70;99.90;;;;;;5034238;28;19925;-86
2022/04/14 09:25:33;;;;;;;;;;;17.70;99.90;;;;;;5016653;28;19925;-85
2022/04/14 09:28:07;;;;;;;;;;;17.70;99.90;;;;;;5016576;28;19926;-85
2022/04/14 09:30:32;;;;;;;;;;;17.80;99.90;;;;;;5034486;28;20003;-86
2022/04/14 09:32:58;;;;;;;;;;;17.90;99.90;;;;;;5000169;28;20027;-86
2022/04/14 09:35:25;;;;;;;;;;;18.00;99.90;;;;;;5016238;28;19929;-85
2022/04/14 09:38:04;;;;;;;;;;;18.00;99.90;;;;;;5016282;28;19925;-86
2022/04/14 09:40:30;;;;;;;;;;;17.90;99.90;;;;;;5033824;28;20027;-86
2022/04/14 09:42:56;;;;;;;;;;;18.00;99.90;;;;;;5034088;28;19926;-86
2022/04/14 09:45:26;;;;;;;;;;;18.20;99.90;;;;;;5034107;28;20445;-86
2022/04/14 09:47:52;;;;;;;;;;;18.20;99.90;;;;;;5015791;28;19932;-85
2022/04/14 09:50:28;;;;;;;;;;;18.30;99.90;;;;;;5033457;28;19925;-86
2022/04/14 09:52:56;;;;;;;;;;;18.50;99.90;;;;;;5033289;28;20382;-86
2022/04/14 09:55:22;;;;;;;;;;;18.40;99.90;;;;;;5015939;28;20012;-86
2022/04/14 09:58:07;;;;;;;;;;;18.60;99.90;;;;;;5033812;28;20016;-86
2022/04/14 10:00:52;;;;;;;;;;;18.60;99.90;;;;;;5005185;28;19935;-85
2022/04/14 10:03:22;;;;;;;;;;;18.70;99.90;;;;;;5033688;28;19925;-85
2022/04/14 10:05:48;;;;;;;;;;;18.70;99.90;;;;;;5033185;28;19983;-86
2022/04/14 10:08:14;;;;;;;;;;;18.80;99.90;;;;;;5033486;28;19965;-86
2022/04/14 10:10:44;;;;;;;;;;;18.90;99.90;;;;;;4999208;28;20007;-86
2022/04/14 10:13:10;;;;;;;;;;;18.70;99.90;;;;;;5015682;28;20444;-86
2022/04/14 10:15:37;;;;;;;;;;;18.80;99.90;;;;;;5015557;28;20022;-86
2022/04/14 10:18:10;;;;;;;;;;;18.80;99.90;;;;;;5014299;28;19925;-86
2022/04/14 10:20:37;;;;;;;;;;;18.70;99.90;;;;;;5015303;28;19925;-86
2022/04/14 10:23:02;;;;;;;;;;;18.90;99.90;;;;;;5015386;28;19925;-85
2022/04/14 10:25:28;;;;;;;;;;;18.70;99.90;;;;;;5015678;28;19925;-85
2022/04/14 10:27:55;;;;;;;;;;;18.50;99.90;;;;;;5033163;28;20401;-85
2022/04/14 10:30:21;;;;;;;;;;;18.70;99.90;;;;;;5033156;28;20028;-86
2022/04/14 10:32:47;;;;;;;;;;;19.00;99.90;;;;;;5014558;28;20393;-86
2022/04/14 10:35:12;;;;;;;;;;;19.20;99.90;;;;;;5015620;28;19964;-86
2022/04/14 10:37:41;;;;;;;;;;;19.50;99.90;;;;;;5033114;28;20432;-86
2022/04/14 10:40:08;;;;;;;;;;;19.30;99.90;;;;;;5014925;28;19964;-85
2022/04/14 10:42:34;;;;;;;;;;;19.50;99.90;;;;;;5015429;28;19925;-86
2022/04/14 10:44:59;;;;;;;;;;;19.30;99.90;;;;;;4998579;28;20437;-85
2022/04/14 10:47:43;;;;;;;;;;;19.30;99.90;;;;;;5032186;28;19976;-85
2022/04/14 10:50:21;;;;;;;;;;;19.10;99.90;;;;;;5014903;28;19932;-85
2022/04/14 10:53:00;;;;;;;;;;;18.90;99.90;;;;;;5009157;28;19926;-85
2022/04/14 10:55:39;;;;;;;;;;;18.60;99.90;;;;;;5031617;28;19984;-86
2022/04/14 10:58:05;;;;;;;;;;;18.70;99.90;;;;;;5031250;28;19960;-86
2022/04/14 11:00:31;;;;;;;;;;;18.70;99.90;;;;;;5031570;28;19933;-85
2022/04/14 11:03:09;;;;;;;;;;;18.50;99.90;;;;;;5031051;28;19925;-85
2022/04/14 11:05:42;;;;;;;;;;;18.50;99.90;;;;;;5031167;28;20293;-85
2022/04/14 11:08:24;;;;;;;;;;;18.80;99.90;;;;;;5032078;28;19951;-85
2022/04/14 11:11:04;;;;;;;;;;;19.10;99.90;;;;;;5031239;28;19924;-86
2022/04/14 11:13:49;;;;;;;;;;;19.30;99.90;;;;;;5031060;28;19931;-86
2022/04/14 11:16:33;;;;;;;;;;;19.60;99.90;;;;;;5030385;28;19932;-85
2022/04/14 11:19:28;;;;;;;;;;;19.30;99.90;;;;;;5030659;28;20425;-86
2022/04/14 11:22:10;;;;;;;;;;;19.50;99.90;;;;;;5026167;28;19925;-85
2022/04/14 11:24:35;;;;;;;;;;;19.80;99.90;;;;;;5032035;28;19929;-85
2022/04/14 11:27:29;;;;;;;;;;;19.80;99.90;;;;;;5030987;28;19921;-86
2022/04/14 11:29:58;;;;;;;;;;;20.00;99.90;;;;;;5030838;28;20386;-85
2022/04/14 11:32:39;;;;;;;;;;;20.00;99.10;;;;;;5031553;28;19932;-85
2022/04/14 11:35:09;;;;;;;;;;;20.10;99.50;;;;;;5031769;28;19929;-86
2022/04/14 11:37:45;;;;;;;;;;;20.00;99.90;;;;;;5030698;28;20394;-85
2022/04/14 11:40:11;;;;;;;;;;;19.80;99.90;;;;;;5032027;28;19929;-85
2022/04/14 11:42:37;;;;;;;;;;;20.00;99.90;;;;;;5030574;28;20016;-85
2022/04/14 11:45:02;;;;;;;;;;;20.10;99.90;;;;;;5031708;28;19972;-85
2022/04/14 11:47:28;;;;;;;;;;;20.00;99.90;;;;;;5031281;28;19973;-85
2022/04/14 11:49:54;;;;;;;;;;;20.30;99.90;;;;;;5030695;28;19926;-85
2022/04/14 11:52:22;;;;;;;;;;;20.40;99.40;;;;;;5030255;28;20444;-85
2022/04/14 11:54:49;;;;;;;;;;;20.40;97.10;;;;;;5031961;28;19932;-85
2022/04/14 11:57:18;;;;;;;;;;;20.40;99.40;;;;;;5031717;28;20305;-85
2022/04/14 11:59:45;;;;;;;;;;;20.60;97.80;;;;;;5031357;28;20043;-85
2022/04/14 12:02:13;;;;;;;;;;;20.30;99.60;;;;;;5030147;28;19925;-85
2022/04/14 12:04:46;;;;;;;;;;;20.60;99.60;;;;;;5031762;28;19925;-85
2022/04/14 12:07:11;;;;;;;;;;;20.80;97.50;;;;;;4997740;28;19929;-85
2022/04/14 12:09:37;;;;;;;;;;;20.90;96.90;;;;;;5031695;28;19936;-85
2022/04/14 12:12:12;;;;;;;;;;;20.70;97.70;;;;;;5031406;28;19925;-86
2022/04/14 12:14:45;;;;;;;;;;;20.70;95.10;;;;;;5030955;28;20374;-85
2022/04/14 12:17:11;;;;;;;;;;;20.90;96.40;;;;;;5031501;28;19925;-85
2022/04/14 12:19:44;;;;;;;;;;;21.20;94.00;;;;;;5030049;28;20393;-85
2022/04/14 12:22:10;;;;;;;;;;;20.80;91.80;;;;;;5030006;28;20031;-85
2022/04/14 12:24:36;;;;;;;;;;;20.50;88.10;;;;;;5031407;28;20361;-85
2022/04/14 12:27:02;;;;;;;;;;;20.20;90.50;;;;;;5029961;28;19968;-85
2022/04/14 12:29:27;;;;;;;;;;;20.00;88.20;;;;;;5030933;28;19932;-85
2022/04/14 12:31:56;;;;;;;;;;;20.00;91.80;;;;;;5031759;28;20016;-85
2022/04/14 12:34:22;;;;;;;;;;;19.70;92.10;;;;;;5031417;28;20289;-85
2022/04/14 12:36:48;;;;;;;;;;;19.80;94.00;;;;;;5031486;28;19979;-85
2022/04/14 12:39:20;;;;;;;;;;;19.40;95.40;;;;;;5031357;28;20386;-85
2022/04/14 12:41:46;;;;;;;;;;;19.60;96.10;;;;;;5032980;28;20385;-85
2022/04/14 12:44:16;;;;;;;;;;;19.70;92.80;;;;;;5033343;28;19975;-85
2022/04/14 12:46:41;;;;;;;;;;;19.50;93.50;;;;;;5035509;28;19940;-85
2022/04/14 12:49:08;;;;;;;;;;;19.30;96.20;;;;;;5000702;28;19929;-85
2022/04/14 12:51:38;;;;;;;;;;;19.50;92.70;;;;;;5034780;28;20529;-84
2022/04/14 12:54:04;;;;;;;;;;;19.80;93.50;;;;;;5000931;28;20313;-85
2022/04/14 12:56:31;;;;;;;;;;;20.00;92.60;;;;;;5017496;28;20028;-85
2022/04/14 12:59:07;;;;;;;;;;;20.00;93.60;;;;;;5034483;28;19975;-85
2022/04/14 13:01:52;;;;;;;;;;;20.20;94.40;;;;;;5016985;28;19925;-86
2022/04/14 13:04:19;;;;;;;;;;;20.40;94.10;;;;;;5034755;28;20020;-85
2022/04/14 13:07:01;;;;;;;;;;;20.10;90.40;;;;;;5016899;28;19932;-86
2022/04/14 13:09:26;;;;;;;;;;;20.40;91.00;;;;;;5034892;28;19925;-85
2022/04/14 13:11:52;;;;;;;;;;;20.60;89.10;;;;;;5017080;28;20445;-85
2022/04/14 13:14:21;;;;;;;;;;;20.70;89.20;;;;;;5016402;28;19925;-85
2022/04/14 13:16:47;;;;;;;;;;;20.80;85.80;;;;;;5016812;28;19925;-86
2022/04/14 13:19:12;;;;;;;;;;;20.90;82.70;;;;;;5033989;28;19965;-85
2022/04/14 13:21:38;;;;;;;;;;;21.20;85.60;;;;;;5016599;28;19987;-85
2022/04/14 13:24:03;;;;;;;;;;;21.30;84.70;;;;;;5034309;28;20371;-85
2022/04/14 13:26:29;;;;;;;;;;;21.30;86.70;;;;;;5000411;28;19928;-86
2022/04/14 13:28:55;;;;;;;;;;;21.50;83.40;;;;;;5033923;28;19929;-85
2022/04/14 13:31:20;;;;;;;;;;;21.20;82.40;;;;;;5016755;28;19925;-85
2022/04/14 13:33:46;;;;;;;;;;;21.30;82.90;;;;;;5016390;28;19925;-85
2022/04/14 13:36:11;;;;;;;;;;;21.10;77.70;;;;;;5016132;28;19995;-86
2022/04/14 13:38:37;;;;;;;;;;;21.10;82.50;;;;;;5016648;28;19933;-85
2022/04/14 13:41:02;;;;;;;;;;;20.80;82.70;;;;;;5000014;28;19929;-86
2022/04/14 13:43:28;;;;;;;;;;;20.60;83.00;;;;;;4999655;28;20272;-86
2022/04/14 13:45:53;;;;;;;;;;;20.40;81.00;;;;;;5016055;28;19932;-85
2022/04/14 13:48:19;;;;;;;;;;;20.30;83.30;;;;;;5016100;28;19929;-85
2022/04/14 13:50:45;;;;;;;;;;;20.00;81.80;;;;;;5015735;28;19933;-85
2022/04/14 13:53:11;;;;;;;;;;;19.90;83.90;;;;;;5029715;28;19933;-85
2022/04/14 13:55:37;;;;;;;;;;;19.80;87.40;;;;;;5016254;28;20370;-85
2022/04/14 13:58:06;;;;;;;;;;;19.90;88.20;;;;;;5031792;28;20222;-85
2022/04/14 14:00:31;;;;;;;;;;;20.00;86.50;;;;;;5015862;28;20023;-86
2022/04/14 14:02:57;;;;;;;;;;;20.10;87.00;;;;;;5032435;28;20016;-85
2022/04/14 14:05:22;;;;;;;;;;;19.80;88.00;;;;;;5033371;28;20301;-85
2022/04/14 14:07:48;;;;;;;;;;;19.60;88.00;;;;;;5032526;28;19931;-85
2022/04/14 14:10:14;;;;;;;;;;;19.70;90.30;;;;;;5033009;28;20397;-85
2022/04/14 14:12:40;;;;;;;;;;;19.50;89.80;;;;;;5033503;28;19957;-85
2022/04/14 14:15:08;;;;;;;;;;;19.50;90.00;;;;;;5033386;28;19935;-85
2022/04/14 14:17:38;;;;;;;;;;;19.50;91.70;;;;;;5033132;28;19925;-85